Harleysville, PA (19438)

6:22 AM EDT on April 26, 2015 (GMT -0400)
Harleysville/Skippack | | Change Station
CLOSE
Current Station
Personal Weather Station
Location: Harleysville, PA
Elevation: 320 ft
Nearby Weather Stations

Elev 320 ft 40.24 °N, 75.40 °W | Updated 9 seconds ago

Partly Cloudy
Partly Cloudy
39.6 °F
Feels Like 40 °F
N
0.0
Wind Variable Wind from WNW
Gusts 1.0 mph

Today
High -- | Low -- °F
--% Chance of Precip.
Yesterday
High -- | Low -- °F
Precip. -- in
6:08 AM 7:51 PM
First Quarter, 54% visible
Pressure 29.69 in
Visibility 10.0 miles
Clouds Clear
Windchill 40 °F
Dew Point 31 °F
Humidity 70%
Rainfall 0.00 in
Snow Depth Not available.
UV 0.0 out of 12
Pollen 10.10 out of 12
Air Quality Not available.
Flu Activity Sporadic
METAR KPTW 260954Z AUTO 32003KT 10SM CLR 05/M03 A2969 RMK AO2 SLP052 T00501028

More Conditions Fewer Conditions

Pressure 29.69 in
Visibility 10.0 miles
Clouds Clear
Windchill 40 °F
Dew Point 31 °F
Humidity 70%
Rainfall 0.00 in
Snow Depth Not available.
UV 0.0 out of 12
Pollen 10.10 out of 12
Air Quality Not available.
Flu Activity Sporadic
METAR KPTW 260954Z AUTO 32003KT 10SM CLR 05/M03 A2969 RMK AO2 SLP052 T00501028

More Conditions Fewer Conditions

The full scope of the disaster following a powerful 7.8-magnitude earthquake in Nepal may not come into view for days, but global charities are already sending emergency aid. Click to see how you can help.

10-Day Weather Forecast

Almanac

Astronomy

Apr. 26, 2015 Rise Set
Actual Time
Civil Twilight
Nautical Twilight
Astronomical Twilight
Moon
Length of Visible Light
Length of Day
Tomorrow will be .
, % of the Moon is Illuminated

Today's Extremes

State Highs State Lows

Community

WunderPhotos

Upload Photos

1,816,960 photos uploaded!

WunderBlogs® & News

Nearby

Air Quality

  Air Quality AQ Index Pollutant
Not available.

Snow Depth

Station Depth Elevation

Earthquake Activity

City Distance Mag. Time & Date
Minimum magnitude displayed is 2.5.

Coastal Water Temperatures

Place Temperature

Stations

Nearby Weather Stations

Station Location Temp. Windchill Dew Point Humidity Wind Precip. Elev Updated Type